Time;durP1;ratioP1;P1;durP2;ratioP2;P2;SDS_P1;SDS_P2;PMS_P1;PMS_P2;Temp;Humidity;BMP_temperature;BMP_pressure;BME280_temperature;BME280_humidity;BME280_pressure;Samples;Min_cycle;Max_cycle;Signal;HPM_P1;HPM_P2
2022/02/22 00:02:28;;;;;;;1.48;0.60;;;24.90;46.60;;;;;;4969917;28;20257;-53
2022/02/22 00:04:59;;;;;;;1.58;0.50;;;25.00;46.60;;;;;;4970854;28;20276;-53
2022/02/22 00:07:31;;;;;;;1.50;0.80;;;25.00;46.60;;;;;;4970076;28;20241;-57
2022/02/22 00:10:02;;;;;;;2.40;0.70;;;25.10;46.70;;;;;;4970693;28;20226;-57
2022/02/22 00:12:33;;;;;;;1.85;0.80;;;25.10;46.80;;;;;;4970196;28;20200;-56
2022/02/22 00:15:03;;;;;;;0.40;0.40;;;25.20;46.90;;;;;;4969794;28;20536;-58
2022/02/22 00:17:36;;;;;;;1.08;0.70;;;25.20;46.90;;;;;;4969530;28;20198;-56
2022/02/22 00:20:12;;;;;;;3.33;0.70;;;25.20;46.90;;;;;;4969333;28;20280;-58
2022/02/22 00:22:44;;;;;;;1.80;0.68;;;25.30;47.00;;;;;;4970478;28;20213;-56
2022/02/22 00:25:15;;;;;;;2.55;0.80;;;25.30;47.00;;;;;;4969613;28;20326;-57
2022/02/22 00:27:47;;;;;;;2.25;0.70;;;25.30;47.70;;;;;;4969950;28;20218;-59
2022/02/22 00:30:18;;;;;;;1.25;0.50;;;25.30;46.90;;;;;;4969947;28;20613;-57
2022/02/22 00:32:48;;;;;;;1.63;0.60;;;25.40;46.70;;;;;;4969976;28;20202;-58
2022/02/22 00:35:19;;;;;;;2.72;0.60;;;25.40;46.70;;;;;;4969463;28;20210;-56
2022/02/22 00:37:51;;;;;;;1.00;0.52;;;25.50;46.80;;;;;;4970144;28;20206;-56
2022/02/22 00:40:22;;;;;;;1.80;0.70;;;25.50;46.80;;;;;;4969519;28;20580;-55
2022/02/22 00:42:53;;;;;;;2.53;0.88;;;25.50;46.90;;;;;;4968020;28;20257;-57
2022/02/22 00:45:23;;;;;;;3.25;0.80;;;25.50;46.90;;;;;;4970128;28;20226;-58
2022/02/22 00:47:54;;;;;;;1.10;0.57;;;25.60;47.00;;;;;;4970036;28;20281;-56
2022/02/22 00:50:24;;;;;;;2.25;0.60;;;25.60;47.10;;;;;;4970148;28;20269;-59
2022/02/22 00:52:57;;;;;;;1.30;0.60;;;25.60;47.10;;;;;;4967391;28;20206;-55
2022/02/22 00:55:28;;;;;;;1.30;0.75;;;25.70;47.20;;;;;;4970207;28;20194;-57
2022/02/22 00:57:59;;;;;;;2.30;0.70;;;25.70;47.20;;;;;;4969337;28;20245;-57
2022/02/22 01:00:29;;;;;;;1.73;0.60;;;25.70;47.30;;;;;;4969655;28;20273;-56
2022/02/22 01:03:00;;;;;;;2.72;1.00;;;25.80;47.40;;;;;;4969769;28;20198;-56
2022/02/22 01:05:30;;;;;;;1.55;0.70;;;25.80;47.40;;;;;;4969932;28;20257;-57
2022/02/22 01:08:03;;;;;;;1.30;0.77;;;25.80;47.40;;;;;;4970859;28;20214;-58
2022/02/22 01:10:34;;;;;;;2.00;0.73;;;25.80;47.40;;;;;;4969547;28;20221;-58
2022/02/22 01:13:04;;;;;;;1.77;0.52;;;25.80;47.30;;;;;;4969789;28;20202;-56
2022/02/22 01:15:35;;;;;;;1.23;0.50;;;25.90;47.30;;;;;;4968838;28;20202;-58
2022/02/22 01:18:06;;;;;;;1.15;0.52;;;25.90;47.30;;;;;;4970336;28;20252;-57
2022/02/22 01:20:37;;;;;;;2.15;0.70;;;25.90;47.30;;;;;;4974170;28;20288;-58
2022/02/22 01:23:09;;;;;;;2.35;0.88;;;26.00;47.20;;;;;;4972975;28;20206;-55
2022/02/22 01:25:40;;;;;;;1.05;0.60;;;26.00;47.20;;;;;;4973567;28;20198;-57
2022/02/22 01:28:10;;;;;;;0.90;0.50;;;26.00;47.20;;;;;;4972792;28;20272;-59
2022/02/22 01:30:41;;;;;;;1.08;0.70;;;26.10;47.30;;;;;;4973366;28;20343;-59
2022/02/22 01:33:12;;;;;;;1.05;0.50;;;26.10;47.10;;;;;;4973260;28;20206;-57
2022/02/22 01:35:42;;;;;;;0.80;0.40;;;26.10;47.10;;;;;;4972672;28;20198;-57
2022/02/22 01:38:15;;;;;;;1.50;0.60;;;26.20;47.20;;;;;;4973347;28;20272;-57
2022/02/22 01:40:45;;;;;;;1.10;0.60;;;26.20;47.20;;;;;;4972577;28;20218;-56
2022/02/22 01:43:16;;;;;;;2.50;0.52;;;26.20;47.30;;;;;;4972914;28;20190;-58
2022/02/22 01:45:47;;;;;;;1.48;0.60;;;26.20;47.20;;;;;;4972233;28;20198;-53
2022/02/22 01:48:18;;;;;;;0.50;0.35;;;26.20;47.20;;;;;;4971868;28;20232;-55
2022/02/22 01:50:49;;;;;;;1.50;0.70;;;26.30;47.40;;;;;;4972529;28;20214;-50
2022/02/22 01:53:21;;;;;;;1.75;0.60;;;26.30;47.40;;;;;;4965396;28;20250;-55
2022/02/22 01:55:52;;;;;;;2.28;0.60;;;26.30;47.30;;;;;;4962976;28;20662;-58
2022/02/22 01:58:23;;;;;;;0.88;0.47;;;26.40;47.40;;;;;;4974702;28;20191;-58
2022/02/22 02:00:53;;;;;;;1.27;0.50;;;26.40;47.40;;;;;;4974166;28;20222;-57
2022/02/22 02:03:25;;;;;;;1.73;0.50;;;26.40;47.40;;;;;;4974094;28;20203;-58
2022/02/22 02:05:55;;;;;;;2.63;0.80;;;26.50;47.40;;;;;;4972518;28;20253;-58
2022/02/22 02:08:28;;;;;;;0.90;0.52;;;26.50;47.40;;;;;;4973814;28;20272;-55
2022/02/22 02:11:00;;;;;;;0.93;0.50;;;26.50;47.40;;;;;;4972656;28;20225;-54
2022/02/22 02:13:31;;;;;;;1.27;0.60;;;26.50;47.40;;;;;;4970761;28;20198;-54
2022/02/22 02:16:01;;;;;;;1.23;0.60;;;26.60;47.40;;;;;;4971550;28;20195;-54
2022/02/22 02:18:32;;;;;;;1.50;0.55;;;26.60;47.40;;;;;;4962312;28;20194;-52
2022/02/22 02:21:04;;;;;;;1.33;0.60;;;26.70;47.50;;;;;;4970849;28;20256;-58
2022/02/22 02:23:36;;;;;;;2.33;0.75;;;26.70;47.50;;;;;;4971954;28;20194;-55
2022/02/22 02:26:07;;;;;;;1.02;0.50;;;26.80;47.50;;;;;;4971580;28;20546;-54
2022/02/22 02:28:37;;;;;;;0.68;0.60;;;26.80;47.40;;;;;;4971353;28;20277;-55
2022/02/22 02:31:08;;;;;;;1.17;0.70;;;26.80;47.40;;;;;;4971023;28;20386;-57
2022/02/22 02:33:38;;;;;;;1.33;0.60;;;26.80;47.40;;;;;;4971783;28;20198;-54
2022/02/22 02:36:09;;;;;;;0.80;0.50;;;26.90;47.50;;;;;;4962411;28;20195;-57
2022/02/22 02:38:43;;;;;;;2.15;0.60;;;26.90;47.50;;;;;;4953099;28;20286;-57
2022/02/22 02:41:13;;;;;;;2.33;0.70;;;27.00;47.60;;;;;;4972089;28;20218;-58
2022/02/22 02:43:44;;;;;;;1.25;0.60;;;27.00;47.60;;;;;;4972319;28;20201;-58
2022/02/22 02:46:14;;;;;;;1.50;0.65;;;27.00;47.70;;;;;;4970372;28;20203;-57
2022/02/22 02:48:45;;;;;;;1.13;0.55;;;27.00;47.60;;;;;;4964120;28;20215;-57
2022/02/22 02:51:15;;;;;;;2.58;0.68;;;27.00;47.50;;;;;;4972012;28;20214;-57
2022/02/22 02:53:48;;;;;;;1.70;0.70;;;27.10;47.60;;;;;;4967701;28;20217;-57
2022/02/22 02:56:22;;;;;;;1.02;0.70;;;27.10;47.60;;;;;;4971032;28;20190;-56
2022/02/22 02:58:53;;;;;;;1.48;0.60;;;27.20;47.70;;;;;;4971954;28;20202;-58
2022/02/22 03:01:24;;;;;;;1.33;0.60;;;27.20;47.60;;;;;;4971315;28;20224;-58
2022/02/22 03:03:57;;;;;;;0.95;0.60;;;27.20;47.40;;;;;;4970901;28;20241;-54
2022/02/22 03:06:28;;;;;;;1.42;0.50;;;27.30;47.50;;;;;;4971504;28;20194;-52
2022/02/22 03:09:00;;;;;;;1.30;0.73;;;27.30;47.50;;;;;;4971484;28;20265;-57
2022/02/22 03:11:31;;;;;;;1.67;0.90;;;27.40;47.70;;;;;;4970453;28;20210;-56
2022/02/22 03:14:02;;;;;;;2.33;0.90;;;27.40;47.60;;;;;;4971437;28;20198;-55
2022/02/22 03:16:32;;;;;;;2.80;1.45;;;27.50;47.70;;;;;;4968972;28;20194;-55
2022/02/22 03:19:04;;;;;;;11.02;3.97;;;27.50;47.50;;;;;;4971252;28;20229;-53
2022/02/22 03:21:35;;;;;;;9.90;3.70;;;27.50;46.90;;;;;;4971433;28;20232;-53
2022/02/22 03:24:08;;;;;;;5.60;2.72;;;27.50;46.70;;;;;;4971110;28;20242;-54
2022/02/22 03:26:38;;;;;;;9.02;3.22;;;27.60;47.00;;;;;;4961458;28;21175;-57
2022/02/22 03:29:09;;;;;;;7.65;3.97;;;27.60;47.00;;;;;;4970121;28;20233;-55
2022/02/22 03:31:40;;;;;;;10.85;4.10;;;27.60;47.40;;;;;;4970527;28;20297;-57
2022/02/22 03:34:10;;;;;;;11.02;4.10;;;27.60;46.60;;;;;;4970365;28;20697;-58
2022/02/22 03:36:41;;;;;;;7.90;3.97;;;27.70;46.60;;;;;;4970629;28;20300;-56
2022/02/22 03:39:14;;;;;;;9.63;4.07;;;27.70;46.30;;;;;;4970915;28;20210;-54
2022/02/22 03:41:44;;;;;;;9.82;4.13;;;27.70;46.40;;;;;;4969948;28;20229;-56
2022/02/22 03:44:15;;;;;;;9.27;3.80;;;27.80;46.60;;;;;;4967459;28;20198;-59
2022/02/22 03:46:45;;;;;;;8.88;4.22;;;27.80;46.20;;;;;;4963948;28;20336;-56
2022/02/22 03:49:16;;;;;;;10.52;4.32;;;27.80;46.20;;;;;;4951741;28;20226;-57
2022/02/22 03:51:46;;;;;;;12.57;4.70;;;27.90;46.10;;;;;;4965535;28;20232;-57
2022/02/22 03:54:19;;;;;;;10.15;4.40;;;27.90;45.90;;;;;;4954408;28;20261;-56
2022/02/22 03:56:49;;;;;;;9.90;4.20;;;28.00;45.90;;;;;;4957680;28;20252;-53
2022/02/22 03:59:20;;;;;;;8.30;4.25;;;28.00;45.90;;;;;;4970675;28;20237;-48
2022/02/22 04:01:53;;;;;;;10.35;4.13;;;28.10;46.00;;;;;;4970209;28;20218;-54
2022/02/22 04:04:24;;;;;;;9.63;3.92;;;28.10;45.80;;;;;;4970351;28;20205;-55
2022/02/22 04:06:54;;;;;;;8.50;4.00;;;28.20;45.80;;;;;;4970666;28;20202;-55
2022/02/22 04:09:27;;;;;;;7.95;4.10;;;28.20;45.60;;;;;;4970712;28;20787;-59
2022/02/22 04:11:57;;;;;;;9.48;3.70;;;28.30;45.50;;;;;;4969592;28;20674;-49
2022/02/22 04:14:28;;;;;;;8.00;3.40;;;28.30;45.50;;;;;;4969684;28;21378;-51
2022/02/22 04:16:59;;;;;;;10.70;3.50;;;28.40;45.30;;;;;;4969844;28;20198;-56
2022/02/22 04:19:29;;;;;;;10.82;3.83;;;28.50;45.20;;;;;;4969254;28;20202;-57
2022/02/22 04:22:00;;;;;;;9.43;3.67;;;28.50;45.20;;;;;;4969412;28;20758;-52
2022/02/22 04:24:35;;;;;;;8.98;3.00;;;28.50;45.30;;;;;;4969023;28;20198;-57
2022/02/22 04:27:06;;;;;;;6.95;3.38;;;28.50;45.10;;;;;;4970180;28;20337;-57
2022/02/22 04:29:37;;;;;;;8.45;2.55;;;28.60;45.40;;;;;;4969765;28;20354;-57
2022/02/22 04:32:09;;;;;;;7.45;3.38;;;28.70;45.20;;;;;;4969324;28;20289;-52
2022/02/22 04:34:39;;;;;;;6.80;2.78;;;28.60;45.20;;;;;;4969127;28;20819;-50
2022/02/22 04:37:15;;;;;;;6.53;2.70;;;28.70;45.00;;;;;;4970166;28;20194;-50
2022/02/22 04:39:48;;;;;;;6.13;2.53;;;28.70;44.90;;;;;;4967715;28;20700;-55
2022/02/22 04:42:19;;;;;;;4.65;2.63;;;28.70;45.10;;;;;;4969800;28;20666;-54
2022/02/22 04:44:49;;;;;;;8.63;3.00;;;28.80;46.10;;;;;;4968831;28;20210;-53
2022/02/22 04:47:20;;;;;;;8.63;2.70;;;28.90;45.60;;;;;;4969393;28;20191;-53
2022/02/22 04:49:50;;;;;;;5.43;2.70;;;28.90;45.60;;;;;;4969429;28;20801;-55
2022/02/22 04:52:21;;;;;;;5.13;2.40;;;28.90;45.30;;;;;;4969561;28;20206;-50
2022/02/22 04:54:53;;;;;;;5.88;2.53;;;29.00;45.20;;;;;;4969260;28;20198;-54
2022/02/22 04:57:24;;;;;;;5.93;2.03;;;29.00;45.10;;;;;;4969854;28;20190;-54
2022/02/22 04:59:54;;;;;;;5.22;2.25;;;29.00;44.90;;;;;;4969170;28;20305;-49
2022/02/22 05:02:25;;;;;;;6.32;2.00;;;29.10;44.90;;;;;;4969312;28;20194;-49
2022/02/22 05:04:56;;;;;;;5.75;2.05;;;29.10;45.00;;;;;;4968726;28;20202;-52
2022/02/22 05:10:08;;;;;;;5.80;2.25;;;29.20;45.00;;;;;;4985119;28;20236;-50
2022/02/22 05:12:39;;;;;;;6.05;2.10;;;29.20;44.70;;;;;;4987878;28;20252;-52
2022/02/22 05:15:11;;;;;;;6.00;2.13;;;29.30;44.70;;;;;;4975537;28;20256;-50
2022/02/22 05:17:41;;;;;;;4.80;1.85;;;29.30;44.70;;;;;;4969542;28;20657;-57
2022/02/22 05:20:12;;;;;;;4.75;2.10;;;29.30;44.90;;;;;;4968954;28;20214;-60
2022/02/22 05:22:44;;;;;;;3.50;1.70;;;29.40;45.30;;;;;;4969173;28;20662;-62
2022/02/22 05:25:18;;;;;;;3.78;1.80;;;29.40;45.50;;;;;;4968453;28;20241;-57
2022/02/22 05:27:48;;;;;;;4.78;1.63;;;29.40;45.30;;;;;;4986791;28;20194;-62
2022/02/22 05:30:20;;;;;;;4.38;1.63;;;29.40;45.10;;;;;;4982690;28;20225;-58
2022/02/22 05:32:51;;;;;;;4.32;1.48;;;29.40;45.20;;;;;;4984245;28;20210;-57
2022/02/22 05:35:21;;;;;;;3.58;1.45;;;29.50;45.20;;;;;;4988922;28;20229;-57
2022/02/22 05:37:52;;;;;;;3.75;1.55;;;29.50;45.20;;;;;;4989134;28;20252;-58
2022/02/22 05:40:24;;;;;;;3.05;1.60;;;29.50;45.30;;;;;;4988592;28;20357;-58
2022/02/22 05:42:55;;;;;;;3.55;1.35;;;29.50;45.20;;;;;;4975430;28;20198;-55
2022/02/22 05:45:25;;;;;;;3.67;1.42;;;29.50;45.00;;;;;;4978175;28;20321;-57
2022/02/22 05:47:56;;;;;;;3.55;1.80;;;29.50;45.00;;;;;;4971360;28;20253;-57
2022/02/22 05:50:27;;;;;;;4.65;1.60;;;29.60;45.00;;;;;;4979155;28;20260;-57
2022/02/22 05:52:57;;;;;;;4.38;1.23;;;29.60;45.00;;;;;;4977627;28;20774;-54
2022/02/22 05:55:30;;;;;;;3.92;1.80;;;29.60;44.90;;;;;;4975829;28;20194;-56
2022/02/22 05:58:01;;;;;;;5.15;1.60;;;29.60;44.80;;;;;;4984353;28;20206;-53
2022/02/22 06:00:32;;;;;;;3.35;1.45;;;29.70;44.80;;;;;;4982096;28;20213;-54
2022/02/22 06:03:03;;;;;;;4.97;1.75;;;29.70;44.90;;;;;;4975789;28;20211;-57
2022/02/22 06:05:33;;;;;;;4.40;1.60;;;29.70;44.80;;;;;;4974482;28;20202;-56
2022/02/22 06:08:04;;;;;;;4.28;1.45;;;29.80;44.90;;;;;;4994358;23;21279;-57
2022/02/22 06:10:37;;;;;;;3.53;1.40;;;29.80;44.90;;;;;;5011168;28;20229;-58
2022/02/22 06:13:07;;;;;;;3.20;1.55;;;29.80;44.90;;;;;;5010985;28;20256;-53
2022/02/22 06:15:38;;;;;;;3.55;1.50;;;29.80;44.90;;;;;;5011991;28;20251;-57
2022/02/22 06:18:08;;;;;;;4.30;1.85;;;29.80;44.90;;;;;;5007937;28;20328;-58
2022/02/22 06:20:39;;;;;;;5.13;2.00;;;29.80;45.00;;;;;;5011773;28;20217;-57
2022/02/22 06:23:10;;;;;;;5.28;2.20;;;29.90;45.00;;;;;;5010932;28;20228;-56
2022/02/22 06:25:43;;;;;;;5.28;1.85;;;29.80;45.10;;;;;;5011837;28;20193;-58
2022/02/22 06:28:15;;;;;;;10.02;3.63;;;29.90;45.00;;;;;;5005059;28;20189;-58
2022/02/22 06:30:46;;;;;;;18.55;8.05;;;29.90;44.90;;;;;;5010273;28;20600;-56
2022/02/22 06:33:16;;;;;;;16.73;8.10;;;29.90;44.80;;;;;;5010999;28;20201;-58
2022/02/22 06:35:47;;;;;;;12.52;5.80;;;29.90;44.80;;;;;;5010757;28;20259;-58
2022/02/22 06:38:17;;;;;;;12.15;5.10;;;29.90;45.00;;;;;;5011434;28;21338;-59
2022/02/22 06:40:50;;;;;;;12.48;6.40;;;29.90;45.00;;;;;;5011030;28;20279;-59
2022/02/22 06:43:20;;;;;;;10.05;5.00;;;29.90;45.30;;;;;;5010864;28;20788;-57
2022/02/22 06:45:51;;;;;;;11.82;4.85;;;29.90;45.30;;;;;;5009930;28;20193;-58
2022/02/22 06:48:21;;;;;;;13.15;5.57;;;29.90;45.40;;;;;;5010903;28;20204;-57
2022/02/22 06:50:52;;;;;;;11.48;5.28;;;29.90;45.40;;;;;;5004984;28;20224;-58
2022/02/22 06:53:23;;;;;;;13.27;5.43;;;29.80;45.30;;;;;;5011253;28;20707;-59
2022/02/22 06:55:55;;;;;;;11.27;5.82;;;29.80;45.40;;;;;;5012517;28;20247;-56
2022/02/22 06:58:27;;;;;;;13.82;5.80;;;29.80;45.40;;;;;;5012232;28;20251;-58
2022/02/22 07:00:59;;;;;;;13.80;6.03;;;29.80;45.40;;;;;;5012026;28;20224;-58
2022/02/22 07:03:29;;;;;;;16.27;6.57;;;29.80;45.40;;;;;;5011843;28;20222;-58
2022/02/22 07:06:01;;;;;;;13.55;6.50;;;29.80;45.40;;;;;;5011765;28;20251;-58
2022/02/22 07:08:31;;;;;;;11.77;6.28;;;29.80;45.20;;;;;;5010818;28;20293;-57
2022/02/22 07:11:02;;;;;;;14.00;5.82;;;29.80;45.10;;;;;;5010727;28;20225;-57
2022/02/22 07:13:34;;;;;;;13.35;6.03;;;29.80;45.10;;;;;;5011959;28;20208;-58
2022/02/22 07:16:05;;;;;;;13.20;5.85;;;29.70;45.10;;;;;;5011545;28;20266;-60
2022/02/22 07:18:36;;;;;;;13.38;6.07;;;29.80;45.30;;;;;;5011383;28;20205;-57
2022/02/22 07:21:06;;;;;;;16.63;6.55;;;29.70;45.10;;;;;;5011475;28;20278;-57
2022/02/22 07:23:37;;;;;;;15.95;6.20;;;29.70;45.20;;;;;;5010843;28;20197;-56
2022/02/22 07:26:10;;;;;;;17.13;7.70;;;29.60;45.00;;;;;;5011642;28;20254;-59
2022/02/22 07:28:43;;;;;;;15.73;7.03;;;29.60;44.90;;;;;;5012053;28;20205;-57
2022/02/22 07:31:13;;;;;;;16.08;6.78;;;29.60;44.90;;;;;;5011265;28;20256;-59
2022/02/22 07:33:44;;;;;;;16.42;7.57;;;29.60;44.80;;;;;;5011198;28;20251;-59
2022/02/22 07:36:15;;;;;;;14.73;6.53;;;29.60;44.80;;;;;;5011020;28;20251;-59
2022/02/22 07:38:45;;;;;;;14.00;6.38;;;29.50;44.80;;;;;;5017117;28;20212;-58
2022/02/22 07:41:22;;;;;;;14.43;5.68;;;29.50;44.90;;;;;;5010954;28;20275;-57
2022/02/22 07:43:55;;;;;;;18.23;6.25;;;29.50;45.10;;;;;;5011447;28;20196;-59
2022/02/22 07:46:25;;;;;;;12.80;6.03;;;29.40;45.10;;;;;;5010862;28;20255;-58
2022/02/22 07:48:56;;;;;;;12.55;5.55;;;29.40;45.00;;;;;;5010793;28;20428;-56
2022/02/22 07:51:27;;;;;;;12.60;6.03;;;29.40;45.30;;;;;;5010822;28;20237;-58
2022/02/22 07:53:57;;;;;;;11.60;5.68;;;29.40;45.30;;;;;;5010378;28;20282;-57
2022/02/22 07:56:28;;;;;;;12.90;6.22;;;29.30;45.20;;;;;;5010277;28;20263;-59
2022/02/22 07:59:00;;;;;;;12.85;6.35;;;29.30;45.30;;;;;;5010766;28;20255;-58
2022/02/22 08:01:31;;;;;;;14.95;7.40;;;29.30;45.30;;;;;;5010551;28;20271;-54
2022/02/22 08:04:01;;;;;;;13.75;6.28;;;29.20;44.40;;;;;;5011106;28;20208;-55
2022/02/22 08:06:34;;;;;;;16.65;7.93;;;29.20;44.30;;;;;;5011224;28;20778;-57
2022/02/22 08:09:05;;;;;;;14.20;7.35;;;29.20;44.00;;;;;;5010792;28;21004;-57
2022/02/22 08:11:35;;;;;;;12.57;6.63;;;29.10;43.80;;;;;;5010622;28;20290;-54
2022/02/22 08:14:08;;;;;;;12.45;6.57;;;29.00;43.80;;;;;;5010972;28;20197;-53
2022/02/22 08:16:38;;;;;;;12.25;6.18;;;29.00;43.90;;;;;;5010324;28;20582;-55
2022/02/22 08:19:09;;;;;;;11.57;6.03;;;29.00;44.00;;;;;;5010086;28;20496;-55
2022/02/22 08:21:40;;;;;;;14.13;5.78;;;28.90;44.00;;;;;;5010536;28;20212;-53
2022/02/22 08:24:10;;;;;;;11.80;5.90;;;28.90;44.10;;;;;;5010210;28;20193;-54
2022/02/22 08:26:41;;;;;;;11.82;5.78;;;28.80;44.10;;;;;;5010226;28;20263;-53
2022/02/22 08:29:14;;;;;;;11.60;6.05;;;28.80;44.10;;;;;;5010759;28;20718;-57
2022/02/22 08:31:44;;;;;;;9.82;5.60;;;28.80;44.20;;;;;;5010383;28;20232;-56
2022/02/22 08:34:15;;;;;;;11.02;5.03;;;28.70;44.20;;;;;;5010357;28;20270;-57
2022/02/22 08:36:45;;;;;;;10.02;4.78;;;28.70;44.20;;;;;;5010282;28;20283;-55
2022/02/22 08:39:16;;;;;;;10.65;5.60;;;28.60;44.30;;;;;;5009869;28;20193;-54
2022/02/22 08:41:49;;;;;;;10.07;4.78;;;28.60;44.40;;;;;;5010512;28;20220;-57
2022/02/22 08:44:21;;;;;;;7.68;4.40;;;28.60;44.50;;;;;;5008850;28;20200;-58
2022/02/22 08:46:53;;;;;;;8.07;4.80;;;28.50;44.60;;;;;;5007321;28;20193;-56
2022/02/22 08:49:24;;;;;;;8.20;4.50;;;28.50;44.80;;;;;;5009941;28;20193;-57
2022/02/22 08:51:54;;;;;;;8.85;4.63;;;28.50;44.80;;;;;;5009842;28;20821;-56
2022/02/22 08:54:25;;;;;;;6.53;4.05;;;28.40;44.80;;;;;;5009938;28;20193;-52
2022/02/22 08:56:56;;;;;;;9.05;4.63;;;28.40;45.00;;;;;;5010302;28;20196;-56
2022/02/22 08:59:28;;;;;;;11.50;4.70;;;28.40;45.00;;;;;;5010510;28;20566;-57
2022/02/22 09:01:59;;;;;;;9.73;4.78;;;28.30;45.00;;;;;;5010341;28;20773;-55
2022/02/22 09:04:30;;;;;;;8.48;4.00;;;28.30;44.80;;;;;;5010114;28;20231;-57
2022/02/22 09:07:00;;;;;;;7.90;4.00;;;28.30;44.90;;;;;;5010538;28;20196;-58
2022/02/22 09:09:31;;;;;;;6.50;3.60;;;28.20;44.90;;;;;;5010281;28;20603;-57
2022/02/22 09:12:02;;;;;;;7.82;3.60;;;28.20;45.00;;;;;;5006408;28;20314;-50
2022/02/22 09:14:34;;;;;;;6.00;3.70;;;28.10;45.00;;;;;;5007865;28;20675;-57
2022/02/22 09:17:06;;;;;;;8.20;3.85;;;28.10;45.10;;;;;;4998125;28;20568;-53
2022/02/22 09:19:38;;;;;;;9.70;3.92;;;28.10;45.10;;;;;;5007492;28;20262;-51
2022/02/22 09:22:10;;;;;;;8.45;4.00;;;28.00;45.20;;;;;;5008001;28;20567;-55
2022/02/22 09:24:41;;;;;;;8.00;3.70;;;28.00;45.20;;;;;;5008927;28;20193;-50
2022/02/22 09:27:11;;;;;;;6.78;3.50;;;27.90;45.20;;;;;;5008780;28;20247;-52
2022/02/22 09:29:44;;;;;;;7.25;3.60;;;27.90;45.40;;;;;;5006872;28;20189;-57
2022/02/22 09:32:14;;;;;;;8.68;3.70;;;27.80;45.40;;;;;;5007088;28;20734;-56
2022/02/22 09:34:45;;;;;;;6.18;3.60;;;27.80;45.60;;;;;;5008577;28;20252;-57
2022/02/22 09:37:16;;;;;;;7.43;3.70;;;27.80;45.60;;;;;;5007175;28;20227;-56
2022/02/22 09:39:46;;;;;;;7.75;3.80;;;27.70;45.70;;;;;;5009097;28;20200;-55
2022/02/22 09:42:17;;;;;;;6.22;3.10;;;27.70;45.70;;;;;;5012037;28;20295;-53
2022/02/22 09:44:49;;;;;;;7.63;3.40;;;27.70;45.80;;;;;;4999373;28;20261;-52
2022/02/22 09:47:20;;;;;;;5.65;2.92;;;27.60;45.70;;;;;;4998425;28;20198;-52
2022/02/22 09:49:51;;;;;;;6.15;3.03;;;27.60;45.80;;;;;;4991598;28;20646;-54
2022/02/22 09:52:21;;;;;;;6.93;3.75;;;27.50;45.70;;;;;;4991532;28;20289;-51
2022/02/22 09:54:52;;;;;;;6.10;3.10;;;27.50;45.80;;;;;;5011782;28;20261;-56
2022/02/22 09:57:23;;;;;;;6.18;2.88;;;27.50;45.90;;;;;;5012014;28;20197;-58
2022/02/22 09:59:56;;;;;;;6.03;3.40;;;27.50;46.00;;;;;;5012368;28;20320;-55
2022/02/22 10:02:36;;;;;;;4.75;3.03;;;27.40;46.00;;;;;;5011735;28;20193;-53
2022/02/22 10:05:16;;;;;;;4.68;2.80;;;27.40;46.00;;;;;;5011027;28;20251;-56
2022/02/22 10:07:53;;;;;;;5.30;2.78;;;27.30;46.00;;;;;;5011913;28;20266;-56
2022/02/22 10:10:38;;;;;;;5.55;2.78;;;27.30;46.10;;;;;;5001212;28;20217;-49
2022/02/22 10:13:10;;;;;;;5.22;2.67;;;27.30;46.20;;;;;;4997632;28;20189;-50
2022/02/22 10:15:44;;;;;;;4.65;2.72;;;27.20;46.20;;;;;;5013522;28;20306;-50
2022/02/22 10:18:15;;;;;;;5.78;2.55;;;27.20;46.20;;;;;;4993495;28;20235;-54
2022/02/22 10:20:49;;;;;;;5.78;2.80;;;27.10;46.30;;;;;;4993450;28;20217;-46
2022/02/22 10:23:31;;;;;;;7.43;2.83;;;27.10;46.30;;;;;;4993495;28;20197;-51
2022/02/22 10:26:02;;;;;;;6.90;2.92;;;27.10;46.30;;;;;;5007175;28;20247;-53
2022/02/22 10:28:32;;;;;;;6.90;2.72;;;27.00;46.30;;;;;;5012618;28;20201;-51
2022/02/22 10:31:11;;;;;;;4.78;2.60;;;27.00;46.30;;;;;;5012733;28;20695;-56
2022/02/22 10:33:45;;;;;;;5.95;3.20;;;26.90;46.30;;;;;;5012637;28;20201;-53
2022/02/22 10:36:21;;;;;;;6.28;2.80;;;26.90;46.30;;;;;;5012818;28;20545;-52
2022/02/22 10:38:52;;;;;;;4.70;2.40;;;26.90;46.30;;;;;;5012853;28;20196;-50
2022/02/22 10:41:26;;;;;;;5.75;2.70;;;26.90;46.30;;;;;;5012057;28;20216;-50
2022/02/22 10:43:58;;;;;;;4.45;2.30;;;26.80;46.30;;;;;;5012051;28;20617;-53
2022/02/22 10:46:32;;;;;;;6.47;2.70;;;26.80;46.40;;;;;;5011421;28;20197;-51
2022/02/22 10:49:05;;;;;;;4.75;2.63;;;26.80;46.40;;;;;;5012273;28;20283;-53
2022/02/22 10:51:39;;;;;;;6.05;2.58;;;26.70;46.40;;;;;;5012161;28;20232;-48
2022/02/22 10:54:10;;;;;;;5.03;2.58;;;26.70;46.50;;;;;;5012737;28;20236;-52
2022/02/22 10:56:40;;;;;;;5.63;2.60;;;26.70;46.50;;;;;;5011870;28;20208;-52
2022/02/22 10:59:11;;;;;;;5.20;2.42;;;26.60;46.50;;;;;;5012504;28;20200;-53
2022/02/22 11:01:43;;;;;;;5.72;2.50;;;26.60;46.60;;;;;;5012528;28;20312;-52
2022/02/22 11:04:14;;;;;;;4.20;2.05;;;26.50;46.60;;;;;;5012219;28;20197;-53
2022/02/22 11:06:45;;;;;;;5.22;2.58;;;26.50;46.60;;;;;;5011860;28;20703;-52
2022/02/22 11:09:19;;;;;;;4.80;2.30;;;26.50;46.70;;;;;;5011936;28;20200;-50
2022/02/22 11:11:53;;;;;;;4.95;2.28;;;26.40;46.70;;;;;;5010922;28;20295;-51
2022/02/22 11:14:28;;;;;;;5.53;2.65;;;26.40;46.80;;;;;;5011853;28;20196;-53
2022/02/22 11:17:02;;;;;;;5.45;2.47;;;26.40;46.80;;;;;;5011952;28;20204;-53
2022/02/22 11:19:38;;;;;;;4.35;2.30;;;26.30;46.80;;;;;;5012230;28;20204;-54
2022/02/22 11:22:14;;;;;;;5.65;2.30;;;26.30;46.80;;;;;;5011845;28;20200;-56
2022/02/22 11:24:49;;;;;;;4.70;2.33;;;26.20;46.70;;;;;;5010928;28;20738;-51
2022/02/22 11:27:29;;;;;;;4.30;2.10;;;26.20;46.70;;;;;;5011302;28;20197;-56
2022/02/22 11:30:06;;;;;;;4.95;2.03;;;26.20;46.70;;;;;;5011896;28;20624;-52
2022/02/22 11:32:39;;;;;;;4.75;2.55;;;26.10;46.70;;;;;;5011619;28;20231;-56
2022/02/22 11:35:14;;;;;;;5.88;2.20;;;26.10;46.80;;;;;;5011892;28;20239;-54
2022/02/22 11:37:46;;;;;;;5.20;2.45;;;26.10;46.80;;;;;;5011406;28;20192;-54
2022/02/22 11:40:26;;;;;;;5.32;2.40;;;26.10;46.80;;;;;;5011096;28;20220;-57
2022/02/22 11:43:08;;;;;;;5.68;2.22;;;26.00;46.80;;;;;;5011465;28;20254;-56
2022/02/22 11:45:38;;;;;;;4.72;2.33;;;26.00;46.90;;;;;;5011232;28;20243;-52
2022/02/22 11:48:25;;;;;;;4.60;2.42;;;26.00;46.90;;;;;;5011186;28;20197;-52
2022/02/22 11:50:57;;;;;;;3.70;1.88;;;26.00;46.90;;;;;;5011112;28;20228;-52
2022/02/22 11:53:30;;;;;;;4.55;2.13;;;25.90;46.90;;;;;;5010496;28;20848;-49
2022/02/22 11:56:02;;;;;;;4.70;2.30;;;25.90;47.00;;;;;;5010545;28;20551;-53
2022/02/22 11:58:38;;;;;;;6.60;2.47;;;25.80;47.10;;;;;;5010978;28;20660;-52
2022/02/22 12:01:18;;;;;;;5.35;2.40;;;25.80;47.10;;;;;;5010636;28;20225;-52
2022/02/22 12:03:52;;;;;;;4.85;2.00;;;25.80;47.10;;;;;;5010543;28;20200;-52
2022/02/22 12:06:23;;;;;;;3.88;2.10;;;25.80;47.20;;;;;;5011298;28;20296;-56
2022/02/22 13:08:29;;;;;;;2.88;2.00;;;25.10;47.60;;;;;;5919807;23;20237;-49
2022/02/22 13:11:00;;;;;;;5.38;1.98;;;25.00;47.60;;;;;;4979200;28;20709;-54
2022/02/22 13:13:31;;;;;;;3.65;1.80;;;25.10;47.70;;;;;;4974112;28;20202;-59
2022/02/22 13:16:12;;;;;;;4.60;2.10;;;25.00;47.70;;;;;;4977587;28;20245;-55
2022/02/22 13:18:53;;;;;;;5.03;2.03;;;25.00;47.70;;;;;;4977107;28;20723;-54
2022/02/22 13:21:26;;;;;;;5.05;2.10;;;25.00;47.70;;;;;;4977242;28;20268;-56
2022/02/22 13:24:04;;;;;;;3.90;1.83;;;24.90;47.70;;;;;;4976914;28;20194;-50
2022/02/22 13:26:40;;;;;;;2.85;1.75;;;24.90;47.80;;;;;;4977358;28;20198;-50
2022/02/22 13:29:12;;;;;;;3.72;1.75;;;24.90;47.90;;;;;;4977501;28;20669;-58
2022/02/22 13:31:43;;;;;;;5.43;1.73;;;24.80;47.80;;;;;;4977193;28;20677;-59
2022/02/22 13:34:16;;;;;;;4.38;1.70;;;24.80;47.90;;;;;;4977298;28;20190;-59
2022/02/22 13:36:57;;;;;;;4.50;2.15;;;24.80;47.90;;;;;;4977372;28;20202;-57
2022/02/22 13:39:31;;;;;;;5.50;1.80;;;24.80;48.00;;;;;;4977129;28;20200;-59
2022/02/22 13:42:02;;;;;;;2.50;1.27;;;24.70;47.90;;;;;;4977427;28;20988;-57
2022/02/22 13:44:39;;;;;;;3.92;1.88;;;24.70;48.00;;;;;;4977642;28;20194;-58
2022/02/22 13:47:11;;;;;;;3.33;1.45;;;24.70;48.10;;;;;;4977140;28;20288;-59
2022/02/22 13:49:46;;;;;;;2.95;1.52;;;24.70;48.10;;;;;;4976994;28;20198;-57
2022/02/22 13:52:19;;;;;;;3.97;1.70;;;24.60;48.10;;;;;;4977136;28;20225;-57
2022/02/22 13:54:55;;;;;;;3.78;1.90;;;24.60;48.20;;;;;;4976495;28;20253;-55
2022/02/22 13:57:36;;;;;;;4.43;1.83;;;24.60;48.20;;;;;;4976836;28;20202;-55
2022/02/22 14:00:09;;;;;;;3.58;1.80;;;24.50;48.20;;;;;;4976957;28;20218;-59
2022/02/22 14:02:39;;;;;;;4.13;1.65;;;24.50;48.20;;;;;;4977285;28;20208;-56
2022/02/22 14:05:11;;;;;;;3.78;2.03;;;24.50;48.20;;;;;;4976863;28;20258;-50
2022/02/22 14:07:43;;;;;;;3.42;1.80;;;24.50;48.30;;;;;;4977186;28;20550;-52
2022/02/22 14:10:16;;;;;;;3.50;1.52;;;24.40;48.20;;;;;;4977109;28;20273;-55
2022/02/22 14:12:46;;;;;;;4.45;2.00;;;24.40;48.30;;;;;;4976724;28;20226;-59